sensor_id;sensor_type;location;lat;lon;timestamp;temperature;humidity
45765;DHT22;31474;45.332;10.230;2023-03-08T00:00:34;10.20;99.90
45765;DHT22;31474;45.332;10.230;2023-03-08T00:03:00;10.10;99.90
45765;DHT22;31474;45.332;10.230;2023-03-08T00:05:27;10.10;99.90
45765;DHT22;31474;45.332;10.230;2023-03-08T00:07:53;10.00;99.90
45765;DHT22;31474;45.332;10.230;2023-03-08T00:10:19;10.00;99.90
45765;DHT22;31474;45.332;10.230;2023-03-08T00:12:45;10.00;99.90
45765;DHT22;31474;45.332;10.230;2023-03-08T00:15:10;10.00;99.90
45765;DHT22;31474;45.332;10.230;2023-03-08T00:17:37;9.90;99.90
45765;DHT22;31474;45.332;10.230;2023-03-08T00:20:04;9.90;99.90
45765;DHT22;31474;45.332;10.230;2023-03-08T00:22:36;9.90;99.90
45765;DHT22;31474;45.332;10.230;2023-03-08T00:25:02;9.90;99.90
45765;DHT22;31474;45.332;10.230;2023-03-08T00:27:28;9.80;99.90
45765;DHT22;31474;45.332;10.230;2023-03-08T00:29:53;9.80;99.90
45765;DHT22;31474;45.332;10.230;2023-03-08T00:32:19;9.80;99.90
45765;DHT22;31474;45.332;10.230;2023-03-08T00:34:45;9.70;99.90
45765;DHT22;31474;45.332;10.230;2023-03-08T00:37:12;9.60;99.90
45765;DHT22;31474;45.332;10.230;2023-03-08T00:39:38;9.60;99.90
45765;DHT22;31474;45.332;10.230;2023-03-08T00:42:03;9.60;99.90
45765;DHT22;31474;45.332;10.230;2023-03-08T00:44:29;9.60;99.90
45765;DHT22;31474;45.332;10.230;2023-03-08T00:46:54;9.50;99.90
45765;DHT22;31474;45.332;10.230;2023-03-08T00:49:20;9.50;99.90
45765;DHT22;31474;45.332;10.230;2023-03-08T00:51:47;9.50;99.90
45765;DHT22;31474;45.332;10.230;2023-03-08T00:54:13;9.40;99.90
45765;DHT22;31474;45.332;10.230;2023-03-08T00:56:39;9.40;99.90
45765;DHT22;31474;45.332;10.230;2023-03-08T00:59:05;9.30;99.90
45765;DHT22;31474;45.332;10.230;2023-03-08T01:01:30;9.40;99.90
45765;DHT22;31474;45.332;10.230;2023-03-08T01:03:56;9.30;99.90
45765;DHT22;31474;45.332;10.230;2023-03-08T01:06:22;9.30;99.90
45765;DHT22;31474;45.332;10.230;2023-03-08T01:08:47;9.20;99.90
45765;DHT22;31474;45.332;10.230;2023-03-08T01:11:21;9.20;99.90
45765;DHT22;31474;45.332;10.230;2023-03-08T01:13:49;8.90;99.90
45765;DHT22;31474;45.332;10.230;2023-03-08T01:16:17;8.80;99.90
45765;DHT22;31474;45.332;10.230;2023-03-08T01:18:43;8.70;99.90
45765;DHT22;31474;45.332;10.230;2023-03-08T01:21:09;8.70;99.90
45765;DHT22;31474;45.332;10.230;2023-03-08T01:23:35;8.60;99.90
45765;DHT22;31474;45.332;10.230;2023-03-08T01:26:06;8.70;99.90
45765;DHT22;31474;45.332;10.230;2023-03-08T01:28:32;8.80;99.90
45765;DHT22;31474;45.332;10.230;2023-03-08T01:31:10;8.80;99.90
45765;DHT22;31474;45.332;10.230;2023-03-08T01:33:36;8.90;99.90
45765;DHT22;31474;45.332;10.230;2023-03-08T01:36:07;8.90;99.90
45765;DHT22;31474;45.332;10.230;2023-03-08T01:38:32;8.90;99.90
45765;DHT22;31474;45.332;10.230;2023-03-08T01:40:59;8.90;99.90
45765;DHT22;31474;45.332;10.230;2023-03-08T01:43:28;8.90;99.90
45765;DHT22;31474;45.332;10.230;2023-03-08T01:48:30;8.70;99.90
45765;DHT22;31474;45.332;10.230;2023-03-08T01:50:58;8.70;99.90
45765;DHT22;31474;45.332;10.230;2023-03-08T01:53:25;8.70;99.90
45765;DHT22;31474;45.332;10.230;2023-03-08T01:55:51;8.70;99.90
45765;DHT22;31474;45.332;10.230;2023-03-08T01:58:17;8.70;99.90
45765;DHT22;31474;45.332;10.230;2023-03-08T02:00:43;8.70;99.90
45765;DHT22;31474;45.332;10.230;2023-03-08T02:03:10;8.70;99.90
45765;DHT22;31474;45.332;10.230;2023-03-08T02:05:39;8.70;99.90
45765;DHT22;31474;45.332;10.230;2023-03-08T02:08:06;8.70;99.90
45765;DHT22;31474;45.332;10.230;2023-03-08T02:10:33;8.70;99.90
45765;DHT22;31474;45.332;10.230;2023-03-08T02:13:00;8.70;99.90
45765;DHT22;31474;45.332;10.230;2023-03-08T02:15:26;8.70;99.90
45765;DHT22;31474;45.332;10.230;2023-03-08T02:17:52;8.60;99.90
45765;DHT22;31474;45.332;10.230;2023-03-08T02:22:48;8.50;99.90
45765;DHT22;31474;45.332;10.230;2023-03-08T02:25:22;8.40;99.90
45765;DHT22;31474;45.332;10.230;2023-03-08T02:27:50;8.50;99.90
45765;DHT22;31474;45.332;10.230;2023-03-08T02:30:23;8.50;99.90
45765;DHT22;31474;45.332;10.230;2023-03-08T02:32:49;8.60;99.90
45765;DHT22;31474;45.332;10.230;2023-03-08T02:35:15;8.60;99.90
45765;DHT22;31474;45.332;10.230;2023-03-08T02:37:40;8.60;99.90
45765;DHT22;31474;45.332;10.230;2023-03-08T02:40:06;8.50;99.90
45765;DHT22;31474;45.332;10.230;2023-03-08T02:42:32;8.40;99.90
45765;DHT22;31474;45.332;10.230;2023-03-08T02:44:58;8.40;99.90
45765;DHT22;31474;45.332;10.230;2023-03-08T02:47:23;8.40;99.90
45765;DHT22;31474;45.332;10.230;2023-03-08T02:49:49;8.30;99.90
45765;DHT22;31474;45.332;10.230;2023-03-08T02:52:15;8.30;99.90
45765;DHT22;31474;45.332;10.230;2023-03-08T02:54:40;8.30;99.90
45765;DHT22;31474;45.332;10.230;2023-03-08T02:57:06;8.20;99.90
45765;DHT22;31474;45.332;10.230;2023-03-08T02:59:32;8.20;99.90
45765;DHT22;31474;45.332;10.230;2023-03-08T03:01:57;8.10;99.90
45765;DHT22;31474;45.332;10.230;2023-03-08T03:04:27;8.10;99.90
45765;DHT22;31474;45.332;10.230;2023-03-08T03:06:53;8.10;99.90
45765;DHT22;31474;45.332;10.230;2023-03-08T03:09:18;8.10;99.90
45765;DHT22;31474;45.332;10.230;2023-03-08T03:11:44;8.10;99.90
45765;DHT22;31474;45.332;10.230;2023-03-08T03:14:09;8.10;99.90
45765;DHT22;31474;45.332;10.230;2023-03-08T03:16:36;8.20;99.90
45765;DHT22;31474;45.332;10.230;2023-03-08T03:19:02;8.30;99.90
45765;DHT22;31474;45.332;10.230;2023-03-08T03:21:27;8.20;99.90
45765;DHT22;31474;45.332;10.230;2023-03-08T03:23:54;8.20;99.90
45765;DHT22;31474;45.332;10.230;2023-03-08T03:26:21;8.20;99.90
45765;DHT22;31474;45.332;10.230;2023-03-08T03:28:48;7.90;99.90
45765;DHT22;31474;45.332;10.230;2023-03-08T03:31:16;7.80;99.90
45765;DHT22;31474;45.332;10.230;2023-03-08T03:33:43;7.80;99.90
45765;DHT22;31474;45.332;10.230;2023-03-08T03:36:11;7.80;99.90
45765;DHT22;31474;45.332;10.230;2023-03-08T03:38:38;7.80;99.90
45765;DHT22;31474;45.332;10.230;2023-03-08T03:41:06;7.80;99.90
45765;DHT22;31474;45.332;10.230;2023-03-08T03:43:32;7.70;99.90
45765;DHT22;31474;45.332;10.230;2023-03-08T03:46:00;7.70;99.90
45765;DHT22;31474;45.332;10.230;2023-03-08T03:48:26;7.60;99.90
45765;DHT22;31474;45.332;10.230;2023-03-08T03:50:55;7.70;99.90
45765;DHT22;31474;45.332;10.230;2023-03-08T03:53:22;7.50;99.90
45765;DHT22;31474;45.332;10.230;2023-03-08T03:55:48;7.50;99.90
45765;DHT22;31474;45.332;10.230;2023-03-08T03:58:14;7.60;99.90
45765;DHT22;31474;45.332;10.230;2023-03-08T04:00:39;7.60;99.90
45765;DHT22;31474;45.332;10.230;2023-03-08T04:03:05;7.60;99.90
45765;DHT22;31474;45.332;10.230;2023-03-08T04:05:31;7.60;99.90
45765;DHT22;31474;45.332;10.230;2023-03-08T04:07:56;7.60;99.90
45765;DHT22;31474;45.332;10.230;2023-03-08T04:10:22;7.60;99.90
45765;DHT22;31474;45.332;10.230;2023-03-08T04:12:48;7.60;99.90
45765;DHT22;31474;45.332;10.230;2023-03-08T04:15:14;7.60;99.90
45765;DHT22;31474;45.332;10.230;2023-03-08T04:17:40;7.60;99.90
45765;DHT22;31474;45.332;10.230;2023-03-08T04:20:06;7.70;99.90
45765;DHT22;31474;45.332;10.230;2023-03-08T04:22:32;7.70;99.90
45765;DHT22;31474;45.332;10.230;2023-03-08T04:24:58;7.70;99.90
45765;DHT22;31474;45.332;10.230;2023-03-08T04:27:23;7.70;99.90
45765;DHT22;31474;45.332;10.230;2023-03-08T04:29:49;7.70;99.90
45765;DHT22;31474;45.332;10.230;2023-03-08T04:32:15;7.60;99.90
45765;DHT22;31474;45.332;10.230;2023-03-08T04:34:40;7.50;99.90
45765;DHT22;31474;45.332;10.230;2023-03-08T04:37:11;7.50;99.90
45765;DHT22;31474;45.332;10.230;2023-03-08T04:39:36;7.50;99.90
45765;DHT22;31474;45.332;10.230;2023-03-08T04:42:02;7.50;99.90
45765;DHT22;31474;45.332;10.230;2023-03-08T04:44:28;7.50;99.90
45765;DHT22;31474;45.332;10.230;2023-03-08T04:46:54;7.40;99.90
45765;DHT22;31474;45.332;10.230;2023-03-08T04:49:19;7.50;99.90
45765;DHT22;31474;45.332;10.230;2023-03-08T04:51:45;7.50;99.90
45765;DHT22;31474;45.332;10.230;2023-03-08T04:54:11;7.50;99.90
45765;DHT22;31474;45.332;10.230;2023-03-08T04:56:37;7.50;99.90
45765;DHT22;31474;45.332;10.230;2023-03-08T04:59:03;7.40;99.90
45765;DHT22;31474;45.332;10.230;2023-03-08T05:01:28;7.50;99.90
45765;DHT22;31474;45.332;10.230;2023-03-08T05:03:54;7.50;99.90
45765;DHT22;31474;45.332;10.230;2023-03-08T05:06:22;7.50;99.90
45765;DHT22;31474;45.332;10.230;2023-03-08T05:08:48;7.50;99.90
45765;DHT22;31474;45.332;10.230;2023-03-08T05:11:20;7.60;99.90
45765;DHT22;31474;45.332;10.230;2023-03-08T05:13:46;7.50;99.90
45765;DHT22;31474;45.332;10.230;2023-03-08T05:16:12;7.50;99.90
45765;DHT22;31474;45.332;10.230;2023-03-08T05:18:38;7.40;99.90
45765;DHT22;31474;45.332;10.230;2023-03-08T05:21:06;7.40;99.90
45765;DHT22;31474;45.332;10.230;2023-03-08T05:23:32;7.40;99.90
45765;DHT22;31474;45.332;10.230;2023-03-08T05:25:59;7.40;99.90
45765;DHT22;31474;45.332;10.230;2023-03-08T05:28:27;7.40;99.90
45765;DHT22;31474;45.332;10.230;2023-03-08T05:31:04;7.40;99.90
45765;DHT22;31474;45.332;10.230;2023-03-08T05:33:30;7.40;99.90
45765;DHT22;31474;45.332;10.230;2023-03-08T05:35:56;7.30;99.90
45765;DHT22;31474;45.332;10.230;2023-03-08T05:38:22;7.40;99.90
45765;DHT22;31474;45.332;10.230;2023-03-08T05:40:48;7.30;99.90
45765;DHT22;31474;45.332;10.230;2023-03-08T05:43:15;7.30;99.90
45765;DHT22;31474;45.332;10.230;2023-03-08T05:45:41;7.30;99.90
45765;DHT22;31474;45.332;10.230;2023-03-08T05:48:07;7.30;99.90
45765;DHT22;31474;45.332;10.230;2023-03-08T05:50:33;7.30;99.90
45765;DHT22;31474;45.332;10.230;2023-03-08T05:52:58;7.20;99.90
45765;DHT22;31474;45.332;10.230;2023-03-08T05:55:24;7.20;99.90
45765;DHT22;31474;45.332;10.230;2023-03-08T05:57:49;7.10;99.90
45765;DHT22;31474;45.332;10.230;2023-03-08T06:00:15;7.00;99.90
45765;DHT22;31474;45.332;10.230;2023-03-08T06:02:41;6.90;99.90
45765;DHT22;31474;45.332;10.230;2023-03-08T06:05:07;6.80;99.90
45765;DHT22;31474;45.332;10.230;2023-03-08T06:07:33;6.80;99.90
45765;DHT22;31474;45.332;10.230;2023-03-08T06:09:59;6.80;99.90
45765;DHT22;31474;45.332;10.230;2023-03-08T06:12:25;6.80;99.90
45765;DHT22;31474;45.332;10.230;2023-03-08T06:14:50;6.70;99.90
45765;DHT22;31474;45.332;10.230;2023-03-08T06:17:16;6.80;99.90
45765;DHT22;31474;45.332;10.230;2023-03-08T06:19:41;6.80;99.90
45765;DHT22;31474;45.332;10.230;2023-03-08T06:22:07;6.90;99.90
45765;DHT22;31474;45.332;10.230;2023-03-08T06:24:33;7.10;99.90
45765;DHT22;31474;45.332;10.230;2023-03-08T06:26:58;7.20;99.90
45765;DHT22;31474;45.332;10.230;2023-03-08T06:29:24;7.30;99.90
45765;DHT22;31474;45.332;10.230;2023-03-08T06:31:50;7.30;99.90
45765;DHT22;31474;45.332;10.230;2023-03-08T06:34:16;7.40;99.90
45765;DHT22;31474;45.332;10.230;2023-03-08T06:36:41;7.40;99.90
45765;DHT22;31474;45.332;10.230;2023-03-08T06:39:07;7.60;99.90
45765;DHT22;31474;45.332;10.230;2023-03-08T06:41:34;7.70;99.90
45765;DHT22;31474;45.332;10.230;2023-03-08T06:44:00;7.80;99.90
45765;DHT22;31474;45.332;10.230;2023-03-08T06:46:26;7.80;99.90
45765;DHT22;31474;45.332;10.230;2023-03-08T06:48:52;7.70;99.90
45765;DHT22;31474;45.332;10.230;2023-03-08T06:51:18;7.80;99.90
45765;DHT22;31474;45.332;10.230;2023-03-08T06:53:45;7.90;99.90
45765;DHT22;31474;45.332;10.230;2023-03-08T06:56:14;8.00;99.90
45765;DHT22;31474;45.332;10.230;2023-03-08T06:58:41;8.10;99.90
45765;DHT22;31474;45.332;10.230;2023-03-08T07:01:07;8.20;99.90
45765;DHT22;31474;45.332;10.230;2023-03-08T07:03:34;8.30;99.90
45765;DHT22;31474;45.332;10.230;2023-03-08T07:06:01;8.40;99.90
45765;DHT22;31474;45.332;10.230;2023-03-08T07:08:27;8.50;99.90
45765;DHT22;31474;45.332;10.230;2023-03-08T07:10:53;8.50;99.90
45765;DHT22;31474;45.332;10.230;2023-03-08T07:13:18;8.60;99.90
45765;DHT22;31474;45.332;10.230;2023-03-08T07:15:46;8.70;99.90
45765;DHT22;31474;45.332;10.230;2023-03-08T07:18:12;8.90;99.90
45765;DHT22;31474;45.332;10.230;2023-03-08T07:20:37;9.00;99.90
45765;DHT22;31474;45.332;10.230;2023-03-08T07:23:03;9.10;99.90
45765;DHT22;31474;45.332;10.230;2023-03-08T07:25:29;9.30;99.90
45765;DHT22;31474;45.332;10.230;2023-03-08T07:27:54;9.50;99.90
45765;DHT22;31474;45.332;10.230;2023-03-08T07:30:20;9.60;99.90
45765;DHT22;31474;45.332;10.230;2023-03-08T07:32:46;9.80;99.90
45765;DHT22;31474;45.332;10.230;2023-03-08T07:35:14;9.90;99.90
45765;DHT22;31474;45.332;10.230;2023-03-08T07:37:42;10.00;99.90
45765;DHT22;31474;45.332;10.230;2023-03-08T07:40:10;10.10;99.90
45765;DHT22;31474;45.332;10.230;2023-03-08T07:42:35;10.20;99.90
45765;DHT22;31474;45.332;10.230;2023-03-08T07:45:01;10.30;99.90
45765;DHT22;31474;45.332;10.230;2023-03-08T07:47:27;10.40;99.90
45765;DHT22;31474;45.332;10.230;2023-03-08T07:49:52;10.50;99.90
45765;DHT22;31474;45.332;10.230;2023-03-08T07:52:18;10.60;99.90
45765;DHT22;31474;45.332;10.230;2023-03-08T07:54:43;10.80;99.90
45765;DHT22;31474;45.332;10.230;2023-03-08T07:57:13;10.90;99.90
45765;DHT22;31474;45.332;10.230;2023-03-08T07:59:39;11.00;99.90
45765;DHT22;31474;45.332;10.230;2023-03-08T08:02:05;11.20;99.90
45765;DHT22;31474;45.332;10.230;2023-03-08T08:04:30;11.50;99.90
45765;DHT22;31474;45.332;10.230;2023-03-08T08:06:58;11.60;99.90
45765;DHT22;31474;45.332;10.230;2023-03-08T08:09:24;11.90;99.90
45765;DHT22;31474;45.332;10.230;2023-03-08T08:11:50;12.10;99.90
45765;DHT22;31474;45.332;10.230;2023-03-08T08:14:15;12.20;99.90
45765;DHT22;31474;45.332;10.230;2023-03-08T08:16:41;12.40;99.90
45765;DHT22;31474;45.332;10.230;2023-03-08T08:19:09;12.50;99.90
45765;DHT22;31474;45.332;10.230;2023-03-08T08:21:35;12.60;99.90
45765;DHT22;31474;45.332;10.230;2023-03-08T08:24:01;12.60;99.90
45765;DHT22;31474;45.332;10.230;2023-03-08T08:26:26;12.50;99.90
45765;DHT22;31474;45.332;10.230;2023-03-08T08:28:53;12.60;99.90
45765;DHT22;31474;45.332;10.230;2023-03-08T08:31:21;12.80;99.90
45765;DHT22;31474;45.332;10.230;2023-03-08T08:33:47;13.00;99.90
45765;DHT22;31474;45.332;10.230;2023-03-08T08:36:15;13.20;99.90
45765;DHT22;31474;45.332;10.230;2023-03-08T08:38:41;13.20;99.90
45765;DHT22;31474;45.332;10.230;2023-03-08T08:41:08;13.10;99.90
45765;DHT22;31474;45.332;10.230;2023-03-08T08:43:35;13.20;99.90
45765;DHT22;31474;45.332;10.230;2023-03-08T08:46:02;13.30;99.90
45765;DHT22;31474;45.332;10.230;2023-03-08T08:48:28;13.50;99.90
45765;DHT22;31474;45.332;10.230;2023-03-08T08:50:54;13.70;99.90
45765;DHT22;31474;45.332;10.230;2023-03-08T08:53:20;13.50;99.90
45765;DHT22;31474;45.332;10.230;2023-03-08T08:55:46;13.70;99.90
45765;DHT22;31474;45.332;10.230;2023-03-08T08:58:12;13.80;99.90
45765;DHT22;31474;45.332;10.230;2023-03-08T09:00:37;13.90;99.90
45765;DHT22;31474;45.332;10.230;2023-03-08T09:03:04;13.90;99.90
45765;DHT22;31474;45.332;10.230;2023-03-08T09:05:31;14.00;99.90
45765;DHT22;31474;45.332;10.230;2023-03-08T09:07:58;13.90;99.90
45765;DHT22;31474;45.332;10.230;2023-03-08T09:10:25;13.90;99.90
45765;DHT22;31474;45.332;10.230;2023-03-08T09:12:51;13.80;99.90
45765;DHT22;31474;45.332;10.230;2023-03-08T09:15:17;13.80;99.90
45765;DHT22;31474;45.332;10.230;2023-03-08T09:17:42;13.80;99.90
45765;DHT22;31474;45.332;10.230;2023-03-08T09:20:09;13.90;99.90
45765;DHT22;31474;45.332;10.230;2023-03-08T09:22:35;14.10;99.90
45765;DHT22;31474;45.332;10.230;2023-03-08T09:25:01;14.00;99.90
45765;DHT22;31474;45.332;10.230;2023-03-08T09:27:27;14.00;99.90
45765;DHT22;31474;45.332;10.230;2023-03-08T09:29:53;14.20;99.90
45765;DHT22;31474;45.332;10.230;2023-03-08T09:32:18;14.40;99.90
45765;DHT22;31474;45.332;10.230;2023-03-08T09:34:44;14.60;99.90
45765;DHT22;31474;45.332;10.230;2023-03-08T09:37:12;14.80;99.90
45765;DHT22;31474;45.332;10.230;2023-03-08T09:39:38;14.90;99.90
45765;DHT22;31474;45.332;10.230;2023-03-08T09:42:05;15.10;99.90
45765;DHT22;31474;45.332;10.230;2023-03-08T09:45:16;15.30;99.90
45765;DHT22;31474;45.332;10.230;2023-03-08T09:50:50;15.60;99.90
45765;DHT22;31474;45.332;10.230;2023-03-08T09:53:26;15.60;99.90
45765;DHT22;31474;45.332;10.230;2023-03-08T09:56:47;15.70;99.90
45765;DHT22;31474;45.332;10.230;2023-03-08T09:59:11;15.90;99.90
45765;DHT22;31474;45.332;10.230;2023-03-08T10:01:46;16.00;99.90
45765;DHT22;31474;45.332;10.230;2023-03-08T10:04:54;16.10;99.90
45765;DHT22;31474;45.332;10.230;2023-03-08T10:15:52;16.30;99.90
45765;DHT22;31474;45.332;10.230;2023-03-08T10:18:39;16.30;99.90
45765;DHT22;31474;45.332;10.230;2023-03-08T10:21:11;16.40;99.90
45765;DHT22;31474;45.332;10.230;2023-03-08T10:23:38;16.50;99.90
45765;DHT22;31474;45.332;10.230;2023-03-08T10:26:10;16.50;99.90
45765;DHT22;31474;45.332;10.230;2023-03-08T10:28:37;16.40;99.90
45765;DHT22;31474;45.332;10.230;2023-03-08T10:31:20;16.50;99.90
45765;DHT22;31474;45.332;10.230;2023-03-08T10:33:48;16.60;99.90
45765;DHT22;31474;45.332;10.230;2023-03-08T10:36:23;16.60;99.90
45765;DHT22;31474;45.332;10.230;2023-03-08T10:39:09;16.60;99.90
45765;DHT22;31474;45.332;10.230;2023-03-08T10:41:44;16.70;99.80
45765;DHT22;31474;45.332;10.230;2023-03-08T10:44:27;16.70;99.90
45765;DHT22;31474;45.332;10.230;2023-03-08T10:46:54;16.80;99.90
45765;DHT22;31474;45.332;10.230;2023-03-08T10:49:23;16.90;99.90
45765;DHT22;31474;45.332;10.230;2023-03-08T10:51:57;16.90;99.90
45765;DHT22;31474;45.332;10.230;2023-03-08T10:54:24;17.00;99.90
45765;DHT22;31474;45.332;10.230;2023-03-08T10:56:58;17.00;99.90
45765;DHT22;31474;45.332;10.230;2023-03-08T10:59:31;17.00;99.50
45765;DHT22;31474;45.332;10.230;2023-03-08T11:04:36;17.00;99.70
45765;DHT22;31474;45.332;10.230;2023-03-08T11:07:14;17.10;99.90
45765;DHT22;31474;45.332;10.230;2023-03-08T11:09:44;17.10;99.90
45765;DHT22;31474;45.332;10.230;2023-03-08T11:12:21;17.20;99.90
45765;DHT22;31474;45.332;10.230;2023-03-08T11:14:48;17.20;98.50
45765;DHT22;31474;45.332;10.230;2023-03-08T11:35:42;17.60;99.90
45765;DHT22;31474;45.332;10.230;2023-03-08T11:38:18;17.60;99.90
45765;DHT22;31474;45.332;10.230;2023-03-08T11:41:19;17.60;99.50
45765;DHT22;31474;45.332;10.230;2023-03-08T11:50:19;17.20;99.40
45765;DHT22;31474;45.332;10.230;2023-03-08T11:56:22;16.80;99.20
45765;DHT22;31474;45.332;10.230;2023-03-08T11:59:05;16.70;99.50
45765;DHT22;31474;45.332;10.230;2023-03-08T12:04:19;16.80;99.90
45765;DHT22;31474;45.332;10.230;2023-03-08T12:06:47;16.70;99.80
45765;DHT22;31474;45.332;10.230;2023-03-08T12:09:40;16.70;99.90
45765;DHT22;31474;45.332;10.230;2023-03-08T12:12:15;16.60;99.90
45765;DHT22;31474;45.332;10.230;2023-03-08T12:14:54;16.70;99.50
45765;DHT22;31474;45.332;10.230;2023-03-08T12:17:29;16.80;99.90
45765;DHT22;31474;45.332;10.230;2023-03-08T12:19:56;17.00;99.90
45765;DHT22;31474;45.332;10.230;2023-03-08T12:25:26;17.10;99.50
45765;DHT22;31474;45.332;10.230;2023-03-08T12:27:58;17.20;99.90
45765;DHT22;31474;45.332;10.230;2023-03-08T12:33:11;17.60;99.10
45765;DHT22;31474;45.332;10.230;2023-03-08T12:35:49;17.60;99.10
45765;DHT22;31474;45.332;10.230;2023-03-08T12:40:49;17.40;98.90
45765;DHT22;31474;45.332;10.230;2023-03-08T12:51:03;17.70;99.10
45765;DHT22;31474;45.332;10.230;2023-03-08T12:53:33;17.90;98.00
45765;DHT22;31474;45.332;10.230;2023-03-08T13:01:41;18.10;98.10
45765;DHT22;31474;45.332;10.230;2023-03-08T13:09:30;18.10;97.80
45765;DHT22;31474;45.332;10.230;2023-03-08T13:12:16;18.10;97.60
45765;DHT22;31474;45.332;10.230;2023-03-08T13:17:51;18.30;97.60
45765;DHT22;31474;45.332;10.230;2023-03-08T13:20:24;18.20;97.20
45765;DHT22;31474;45.332;10.230;2023-03-08T13:23:34;18.00;97.50
45765;DHT22;31474;45.332;10.230;2023-03-08T13:28:38;17.50;97.80
45765;DHT22;31474;45.332;10.230;2023-03-08T13:31:18;17.30;97.70
45765;DHT22;31474;45.332;10.230;2023-03-08T13:33:52;17.20;97.00
45765;DHT22;31474;45.332;10.230;2023-03-08T13:36:26;17.20;97.60
45765;DHT22;31474;45.332;10.230;2023-03-08T13:39:02;17.30;97.50
45765;DHT22;31474;45.332;10.230;2023-03-08T13:41:37;17.40;97.90
45765;DHT22;31474;45.332;10.230;2023-03-08T13:44:15;17.40;98.10
45765;DHT22;31474;45.332;10.230;2023-03-08T13:46:41;17.40;98.40
45765;DHT22;31474;45.332;10.230;2023-03-08T13:51:49;17.20;97.60
45765;DHT22;31474;45.332;10.230;2023-03-08T13:54:30;17.20;98.30
45765;DHT22;31474;45.332;10.230;2023-03-08T13:57:04;17.10;97.20
45765;DHT22;31474;45.332;10.230;2023-03-08T13:59:31;17.10;98.40
45765;DHT22;31474;45.332;10.230;2023-03-08T14:01:58;17.00;98.70
45765;DHT22;31474;45.332;10.230;2023-03-08T14:04:26;17.00;98.50
45765;DHT22;31474;45.332;10.230;2023-03-08T14:06:57;16.90;98.30
45765;DHT22;31474;45.332;10.230;2023-03-08T14:09:24;16.80;97.90
45765;DHT22;31474;45.332;10.230;2023-03-08T14:12:04;16.70;98.50
45765;DHT22;31474;45.332;10.230;2023-03-08T14:14:37;16.60;98.60
45765;DHT22;31474;45.332;10.230;2023-03-08T14:17:04;16.60;98.90
45765;DHT22;31474;45.332;10.230;2023-03-08T14:19:36;16.50;99.20
45765;DHT22;31474;45.332;10.230;2023-03-08T14:22:14;16.50;99.10
45765;DHT22;31474;45.332;10.230;2023-03-08T14:24:46;16.50;99.40
45765;DHT22;31474;45.332;10.230;2023-03-08T14:29:38;16.50;99.40
45765;DHT22;31474;45.332;10.230;2023-03-08T14:34:40;16.30;99.40
45765;DHT22;31474;45.332;10.230;2023-03-08T14:37:26;16.30;99.70
45765;DHT22;31474;45.332;10.230;2023-03-08T14:39:55;16.30;99.70
45765;DHT22;31474;45.332;10.230;2023-03-08T14:42:43;16.20;99.80
45765;DHT22;31474;45.332;10.230;2023-03-08T14:53:37;16.10;99.90
45765;DHT22;31474;45.332;10.230;2023-03-08T14:56:12;16.10;99.90
45765;DHT22;31474;45.332;10.230;2023-03-08T14:58:40;16.10;99.90
45765;DHT22;31474;45.332;10.230;2023-03-08T15:01:07;16.00;99.90
45765;DHT22;31474;45.332;10.230;2023-03-08T15:03:33;16.00;99.90
45765;DHT22;31474;45.332;10.230;2023-03-08T15:06:04;16.00;99.90
45765;DHT22;31474;45.332;10.230;2023-03-08T15:08:31;16.00;99.90
45765;DHT22;31474;45.332;10.230;2023-03-08T15:10:57;16.00;99.90
45765;DHT22;31474;45.332;10.230;2023-03-08T15:13:23;16.00;99.90
45765;DHT22;31474;45.332;10.230;2023-03-08T15:15:49;16.00;99.90
45765;DHT22;31474;45.332;10.230;2023-03-08T15:18:15;16.00;99.90
45765;DHT22;31474;45.332;10.230;2023-03-08T15:20:45;15.90;99.90
45765;DHT22;31474;45.332;10.230;2023-03-08T15:23:18;15.90;99.90
45765;DHT22;31474;45.332;10.230;2023-03-08T15:25:45;15.90;99.90
45765;DHT22;31474;45.332;10.230;2023-03-08T15:28:13;15.80;99.90
45765;DHT22;31474;45.332;10.230;2023-03-08T15:30:40;15.80;99.90
45765;DHT22;31474;45.332;10.230;2023-03-08T15:33:05;15.80;99.90
45765;DHT22;31474;45.332;10.230;2023-03-08T15:35:31;15.70;99.90
45765;DHT22;31474;45.332;10.230;2023-03-08T15:37:57;15.80;99.90
45765;DHT22;31474;45.332;10.230;2023-03-08T15:40:25;15.80;99.90
45765;DHT22;31474;45.332;10.230;2023-03-08T15:42:51;15.70;99.90
45765;DHT22;31474;45.332;10.230;2023-03-08T15:45:17;15.80;99.90
45765;DHT22;31474;45.332;10.230;2023-03-08T15:47:43;15.80;99.90
45765;DHT22;31474;45.332;10.230;2023-03-08T15:50:16;15.80;99.90
45765;DHT22;31474;45.332;10.230;2023-03-08T15:52:43;15.80;99.90
45765;DHT22;31474;45.332;10.230;2023-03-08T15:55:11;15.80;99.90
45765;DHT22;31474;45.332;10.230;2023-03-08T15:57:37;15.80;99.90
45765;DHT22;31474;45.332;10.230;2023-03-08T16:00:04;15.80;99.90
45765;DHT22;31474;45.332;10.230;2023-03-08T16:02:33;15.80;99.90
45765;DHT22;31474;45.332;10.230;2023-03-08T16:05:00;15.80;99.90
45765;DHT22;31474;45.332;10.230;2023-03-08T16:07:26;15.70;99.90
45765;DHT22;31474;45.332;10.230;2023-03-08T16:09:52;15.70;99.90
45765;DHT22;31474;45.332;10.230;2023-03-08T16:12:18;15.70;99.90
45765;DHT22;31474;45.332;10.230;2023-03-08T16:14:48;15.60;99.90
45765;DHT22;31474;45.332;10.230;2023-03-08T16:17:15;15.60;99.90
45765;DHT22;31474;45.332;10.230;2023-03-08T16:19:41;15.60;99.90
45765;DHT22;31474;45.332;10.230;2023-03-08T16:22:07;15.60;99.90
45765;DHT22;31474;45.332;10.230;2023-03-08T16:24:33;15.50;99.90
45765;DHT22;31474;45.332;10.230;2023-03-08T16:26:59;15.50;99.90
45765;DHT22;31474;45.332;10.230;2023-03-08T16:29:25;15.50;99.90
45765;DHT22;31474;45.332;10.230;2023-03-08T16:31:51;15.50;99.90
45765;DHT22;31474;45.332;10.230;2023-03-08T16:34:17;15.40;99.90
45765;DHT22;31474;45.332;10.230;2023-03-08T16:36:43;15.40;99.90
45765;DHT22;31474;45.332;10.230;2023-03-08T16:39:09;15.40;99.90
45765;DHT22;31474;45.332;10.230;2023-03-08T16:41:37;15.40;99.90
45765;DHT22;31474;45.332;10.230;2023-03-08T16:44:04;15.40;99.90
45765;DHT22;31474;45.332;10.230;2023-03-08T16:46:30;15.30;99.90
45765;DHT22;31474;45.332;10.230;2023-03-08T16:48:56;15.30;99.90
45765;DHT22;31474;45.332;10.230;2023-03-08T16:51:26;15.30;99.90
45765;DHT22;31474;45.332;10.230;2023-03-08T16:53:53;15.30;99.90
45765;DHT22;31474;45.332;10.230;2023-03-08T16:56:24;15.30;99.90
45765;DHT22;31474;45.332;10.230;2023-03-08T16:58:51;15.20;99.90
45765;DHT22;31474;45.332;10.230;2023-03-08T17:01:18;15.20;99.90
45765;DHT22;31474;45.332;10.230;2023-03-08T17:03:44;15.20;99.90
45765;DHT22;31474;45.332;10.230;2023-03-08T17:06:11;15.20;99.90
45765;DHT22;31474;45.332;10.230;2023-03-08T17:08:38;15.10;99.90